sensor_id;sensor_type;location;lat;lon;timestamp;pressure;altitude;pressure_sealevel;temperature;humidity
75886;BME280;64561;44.018;10.144;2022-12-18T00:01:22;102388.13;;;7.49;85.34
75886;BME280;64561;44.018;10.144;2022-12-18T00:03:50;102392.22;;;7.60;84.56
75886;BME280;64561;44.018;10.144;2022-12-18T00:06:19;102395.44;;;7.71;84.39
75886;BME280;64561;44.018;10.144;2022-12-18T00:08:46;102398.16;;;7.74;84.46
75886;BME280;64561;44.018;10.144;2022-12-18T00:11:16;102396.94;;;7.67;83.60
75886;BME280;64561;44.018;10.144;2022-12-18T00:13:43;102400.59;;;7.72;84.05
75886;BME280;64561;44.018;10.144;2022-12-18T00:16:13;102412.66;;;7.75;84.08
75886;BME280;64561;44.018;10.144;2022-12-18T00:18:41;102411.16;;;7.78;83.40
75886;BME280;64561;44.018;10.144;2022-12-18T00:21:10;102425.16;;;7.57;82.91
75886;BME280;64561;44.018;10.144;2022-12-18T00:23:38;102423.22;;;7.40;83.47
75886;BME280;64561;44.018;10.144;2022-12-18T00:26:10;102438.34;;;7.10;84.83
75886;BME280;64561;44.018;10.144;2022-12-18T00:28:37;102436.53;;;7.09;85.13
75886;BME280;64561;44.018;10.144;2022-12-18T00:31:10;102434.78;;;7.08;86.37
75886;BME280;64561;44.018;10.144;2022-12-18T00:33:37;102447.31;;;7.05;86.66
75886;BME280;64561;44.018;10.144;2022-12-18T00:36:19;102446.81;;;7.24;86.10
75886;BME280;64561;44.018;10.144;2022-12-18T00:38:47;102448.00;;;7.42;85.33
75886;BME280;64561;44.018;10.144;2022-12-18T00:41:18;102443.47;;;7.51;83.37
75886;BME280;64561;44.018;10.144;2022-12-18T00:44:07;102451.72;;;7.47;84.17
75886;BME280;64561;44.018;10.144;2022-12-18T00:46:34;102456.50;;;7.43;83.38
75886;BME280;64561;44.018;10.144;2022-12-18T00:49:01;102462.97;;;7.51;83.76
75886;BME280;64561;44.018;10.144;2022-12-18T00:51:28;102463.66;;;7.48;83.22
75886;BME280;64561;44.018;10.144;2022-12-18T00:53:55;102461.50;;;7.54;83.28
75886;BME280;64561;44.018;10.144;2022-12-18T00:56:22;102458.56;;;7.62;83.57
75886;BME280;64561;44.018;10.144;2022-12-18T00:58:50;102451.69;;;7.61;83.08
75886;BME280;64561;44.018;10.144;2022-12-18T01:01:17;102468.63;;;7.60;82.95
75886;BME280;64561;44.018;10.144;2022-12-18T01:03:45;102464.91;;;7.55;83.48
75886;BME280;64561;44.018;10.144;2022-12-18T01:06:15;102468.28;;;7.41;82.86
75886;BME280;64561;44.018;10.144;2022-12-18T01:08:43;102473.56;;;7.44;83.48
75886;BME280;64561;44.018;10.144;2022-12-18T01:11:15;102483.47;;;7.52;83.47
75886;BME280;64561;44.018;10.144;2022-12-18T01:13:43;102485.47;;;7.58;83.41
75886;BME280;64561;44.018;10.144;2022-12-18T01:16:14;102473.84;;;7.35;82.22
75886;BME280;64561;44.018;10.144;2022-12-18T01:18:42;102476.50;;;7.10;84.07
75886;BME280;64561;44.018;10.144;2022-12-18T01:21:11;102478.34;;;6.99;84.60
75886;BME280;64561;44.018;10.144;2022-12-18T01:23:39;102494.81;;;7.04;84.97
75886;BME280;64561;44.018;10.144;2022-12-18T01:26:14;102493.63;;;7.13;85.38
75886;BME280;64561;44.018;10.144;2022-12-18T01:28:43;102493.44;;;7.23;84.33
75886;BME280;64561;44.018;10.144;2022-12-18T01:31:19;102499.41;;;7.37;84.05
75886;BME280;64561;44.018;10.144;2022-12-18T01:33:46;102506.44;;;7.27;84.09
75886;BME280;64561;44.018;10.144;2022-12-18T01:36:21;102511.25;;;7.23;84.94
75886;BME280;64561;44.018;10.144;2022-12-18T01:38:49;102511.25;;;7.23;84.25
75886;BME280;64561;44.018;10.144;2022-12-18T01:41:20;102505.66;;;7.02;85.52
75886;BME280;64561;44.018;10.144;2022-12-18T01:43:56;102514.56;;;6.95;85.58
75886;BME280;64561;44.018;10.144;2022-12-18T01:46:25;102516.78;;;7.04;85.08
75886;BME280;64561;44.018;10.144;2022-12-18T01:49:00;102512.56;;;6.91;84.96
75886;BME280;64561;44.018;10.144;2022-12-18T01:51:29;102523.94;;;6.83;85.83
75886;BME280;64561;44.018;10.144;2022-12-18T01:53:57;102530.72;;;6.71;85.17
75886;BME280;64561;44.018;10.144;2022-12-18T01:56:25;102529.16;;;6.73;85.30
75886;BME280;64561;44.018;10.144;2022-12-18T01:58:58;102537.53;;;6.83;85.67
75886;BME280;64561;44.018;10.144;2022-12-18T02:01:26;102536.66;;;6.83;84.24
75886;BME280;64561;44.018;10.144;2022-12-18T02:03:54;102535.91;;;6.72;86.53
75886;BME280;64561;44.018;10.144;2022-12-18T02:06:33;102538.97;;;6.80;86.40
75886;BME280;64561;44.018;10.144;2022-12-18T02:09:08;102544.72;;;6.52;87.52
75886;BME280;64561;44.018;10.144;2022-12-18T02:17:15;102550.84;;;6.68;87.07
75886;BME280;64561;44.018;10.144;2022-12-18T02:20:13;102551.00;;;6.82;87.02
75886;BME280;64561;44.018;10.144;2022-12-18T02:23:06;102549.78;;;6.89;86.00
75886;BME280;64561;44.018;10.144;2022-12-18T02:26:16;102560.97;;;6.79;86.03
75886;BME280;64561;44.018;10.144;2022-12-18T02:29:02;102562.97;;;6.83;85.57
75886;BME280;64561;44.018;10.144;2022-12-18T02:31:36;102568.59;;;6.79;84.79
75886;BME280;64561;44.018;10.144;2022-12-18T02:34:08;102576.00;;;6.63;86.14
75886;BME280;64561;44.018;10.144;2022-12-18T02:36:40;102571.81;;;6.52;86.70
75886;BME280;64561;44.018;10.144;2022-12-18T02:39:12;102577.09;;;6.30;87.90
75886;BME280;64561;44.018;10.144;2022-12-18T02:41:50;102590.47;;;6.27;89.17
75886;BME280;64561;44.018;10.144;2022-12-18T02:44:19;102592.44;;;6.31;88.88
75886;BME280;64561;44.018;10.144;2022-12-18T02:46:50;102604.41;;;6.32;88.42
75886;BME280;64561;44.018;10.144;2022-12-18T02:55:28;102621.13;;;6.54;89.74
75886;BME280;64561;44.018;10.144;2022-12-18T03:03:51;102620.47;;;6.56;88.40
75886;BME280;64561;44.018;10.144;2022-12-18T03:06:39;102629.66;;;6.54;88.64
75886;BME280;64561;44.018;10.144;2022-12-18T03:09:11;102628.56;;;6.51;88.81
75886;BME280;64561;44.018;10.144;2022-12-18T03:11:41;102632.19;;;6.54;89.12
75886;BME280;64561;44.018;10.144;2022-12-18T03:14:34;102629.75;;;6.56;88.46
75886;BME280;64561;44.018;10.144;2022-12-18T03:17:09;102630.66;;;6.56;89.25
75886;BME280;64561;44.018;10.144;2022-12-18T03:19:37;102616.13;;;6.55;89.35
75886;BME280;64561;44.018;10.144;2022-12-18T03:22:07;102620.69;;;6.59;89.78
75886;BME280;64561;44.018;10.144;2022-12-18T03:24:44;102624.41;;;6.64;89.77
75886;BME280;64561;44.018;10.144;2022-12-18T03:27:14;102620.28;;;6.78;88.96
75886;BME280;64561;44.018;10.144;2022-12-18T03:30:05;102613.59;;;6.92;87.90
75886;BME280;64561;44.018;10.144;2022-12-18T03:32:48;102610.50;;;6.84;87.14
75886;BME280;64561;44.018;10.144;2022-12-18T03:35:29;102615.78;;;6.74;87.84
75886;BME280;64561;44.018;10.144;2022-12-18T03:37:58;102616.09;;;6.67;87.95
75886;BME280;64561;44.018;10.144;2022-12-18T03:43:17;102613.53;;;6.79;87.73
75886;BME280;64561;44.018;10.144;2022-12-18T03:45:54;102608.69;;;6.70;86.85
75886;BME280;64561;44.018;10.144;2022-12-18T03:48:26;102609.72;;;6.60;87.86
75886;BME280;64561;44.018;10.144;2022-12-18T03:51:06;102608.59;;;6.69;88.17
75886;BME280;64561;44.018;10.144;2022-12-18T03:53:49;102605.81;;;6.77;87.44
75886;BME280;64561;44.018;10.144;2022-12-18T03:56:26;102610.78;;;6.76;85.79
75886;BME280;64561;44.018;10.144;2022-12-18T03:58:56;102608.75;;;6.83;86.28
75886;BME280;64561;44.018;10.144;2022-12-18T04:01:33;102605.34;;;6.83;86.91
75886;BME280;64561;44.018;10.144;2022-12-18T04:04:02;102614.94;;;6.87;86.40
75886;BME280;64561;44.018;10.144;2022-12-18T04:06:33;102614.56;;;6.94;85.38
75886;BME280;64561;44.018;10.144;2022-12-18T04:09:01;102617.78;;;6.92;84.08
75886;BME280;64561;44.018;10.144;2022-12-18T04:11:29;102625.63;;;6.70;85.67
75886;BME280;64561;44.018;10.144;2022-12-18T04:13:57;102618.91;;;6.58;86.17
75886;BME280;64561;44.018;10.144;2022-12-18T04:16:26;102626.72;;;6.61;86.42
75886;BME280;64561;44.018;10.144;2022-12-18T04:18:56;102626.84;;;6.63;85.37
75886;BME280;64561;44.018;10.144;2022-12-18T04:21:25;102646.34;;;6.51;86.72
75886;BME280;64561;44.018;10.144;2022-12-18T04:23:52;102645.78;;;6.55;86.34
75886;BME280;64561;44.018;10.144;2022-12-18T04:26:21;102639.47;;;6.50;85.41
75886;BME280;64561;44.018;10.144;2022-12-18T04:29:20;102643.69;;;6.49;86.10
75886;BME280;64561;44.018;10.144;2022-12-18T04:31:47;102648.16;;;6.28;86.86
75886;BME280;64561;44.018;10.144;2022-12-18T04:34:15;102651.25;;;6.36;85.97
75886;BME280;64561;44.018;10.144;2022-12-18T04:36:47;102653.69;;;6.23;86.11
75886;BME280;64561;44.018;10.144;2022-12-18T04:39:15;102659.78;;;6.13;86.67
75886;BME280;64561;44.018;10.144;2022-12-18T04:41:42;102663.66;;;6.08;87.32
75886;BME280;64561;44.018;10.144;2022-12-18T04:44:12;102651.59;;;6.17;87.11
75886;BME280;64561;44.018;10.144;2022-12-18T04:46:39;102671.25;;;6.31;86.57
75886;BME280;64561;44.018;10.144;2022-12-18T04:49:06;102668.84;;;6.21;87.49
75886;BME280;64561;44.018;10.144;2022-12-18T04:51:32;102677.78;;;6.16;88.16
75886;BME280;64561;44.018;10.144;2022-12-18T04:53:59;102686.06;;;6.13;88.09
75886;BME280;64561;44.018;10.144;2022-12-18T04:56:26;102689.94;;;6.08;88.10
75886;BME280;64561;44.018;10.144;2022-12-18T04:58:53;102690.91;;;6.10;87.66
75886;BME280;64561;44.018;10.144;2022-12-18T05:01:19;102686.06;;;6.13;86.92
75886;BME280;64561;44.018;10.144;2022-12-18T05:03:46;102699.75;;;6.04;86.91
75886;BME280;64561;44.018;10.144;2022-12-18T05:06:14;102707.19;;;6.12;87.17
75886;BME280;64561;44.018;10.144;2022-12-18T05:08:41;102709.72;;;6.01;87.79
75886;BME280;64561;44.018;10.144;2022-12-18T05:11:13;102709.44;;;5.86;88.57
75886;BME280;64561;44.018;10.144;2022-12-18T05:13:43;102705.22;;;5.86;88.49
75886;BME280;64561;44.018;10.144;2022-12-18T05:16:12;102707.81;;;5.98;88.24
75886;BME280;64561;44.018;10.144;2022-12-18T05:18:39;102711.03;;;6.19;87.57
75886;BME280;64561;44.018;10.144;2022-12-18T05:21:07;102715.69;;;6.25;86.81
75886;BME280;64561;44.018;10.144;2022-12-18T05:23:34;102713.91;;;6.12;86.18
75886;BME280;64561;44.018;10.144;2022-12-18T05:26:03;102718.22;;;6.25;86.00
75886;BME280;64561;44.018;10.144;2022-12-18T05:28:32;102723.97;;;6.34;86.01
75886;BME280;64561;44.018;10.144;2022-12-18T05:31:01;102736.91;;;6.37;85.21
75886;BME280;64561;44.018;10.144;2022-12-18T05:33:31;102732.03;;;6.16;84.33
75886;BME280;64561;44.018;10.144;2022-12-18T05:36:00;102734.59;;;6.05;83.56
75886;BME280;64561;44.018;10.144;2022-12-18T05:38:29;102748.97;;;5.82;85.59
75886;BME280;64561;44.018;10.144;2022-12-18T05:40:56;102738.25;;;5.86;86.54
75886;BME280;64561;44.018;10.144;2022-12-18T05:43:25;102745.72;;;5.95;85.20
75886;BME280;64561;44.018;10.144;2022-12-18T05:45:53;102754.94;;;5.83;86.89
75886;BME280;64561;44.018;10.144;2022-12-18T05:48:20;102758.53;;;5.63;89.01
75886;BME280;64561;44.018;10.144;2022-12-18T05:50:48;102759.59;;;5.55;89.07
75886;BME280;64561;44.018;10.144;2022-12-18T05:53:17;102760.41;;;5.65;89.19
75886;BME280;64561;44.018;10.144;2022-12-18T05:55:46;102764.53;;;5.75;88.54
75886;BME280;64561;44.018;10.144;2022-12-18T05:58:16;102759.41;;;5.63;88.35
75886;BME280;64561;44.018;10.144;2022-12-18T06:00:45;102773.31;;;5.57;90.64
75886;BME280;64561;44.018;10.144;2022-12-18T06:03:13;102774.75;;;5.65;90.68
75886;BME280;64561;44.018;10.144;2022-12-18T06:05:45;102776.19;;;5.61;90.55
75886;BME280;64561;44.018;10.144;2022-12-18T06:08:12;102788.00;;;5.61;91.50
75886;BME280;64561;44.018;10.144;2022-12-18T06:10:40;102784.03;;;5.64;91.69
75886;BME280;64561;44.018;10.144;2022-12-18T06:13:08;102786.06;;;5.80;91.17
75886;BME280;64561;44.018;10.144;2022-12-18T06:15:38;102793.91;;;5.83;90.23
75886;BME280;64561;44.018;10.144;2022-12-18T06:18:06;102801.34;;;5.92;89.51
75886;BME280;64561;44.018;10.144;2022-12-18T06:20:33;102809.16;;;6.05;88.33
75886;BME280;64561;44.018;10.144;2022-12-18T06:23:00;102808.50;;;6.08;87.74
75886;BME280;64561;44.018;10.144;2022-12-18T06:25:27;102809.81;;;6.03;85.86
75886;BME280;64561;44.018;10.144;2022-12-18T06:27:54;102816.25;;;5.87;86.27
75886;BME280;64561;44.018;10.144;2022-12-18T06:30:21;102822.03;;;5.74;87.29
75886;BME280;64561;44.018;10.144;2022-12-18T06:32:48;102826.25;;;5.74;87.68
75886;BME280;64561;44.018;10.144;2022-12-18T06:35:22;102827.81;;;5.72;88.02
75886;BME280;64561;44.018;10.144;2022-12-18T06:37:49;102835.88;;;5.78;87.77
75886;BME280;64561;44.018;10.144;2022-12-18T06:40:16;102848.22;;;5.73;87.88
75886;BME280;64561;44.018;10.144;2022-12-18T06:42:43;102852.22;;;5.82;86.98
75886;BME280;64561;44.018;10.144;2022-12-18T06:45:10;102845.97;;;5.88;86.94
75886;BME280;64561;44.018;10.144;2022-12-18T06:47:37;102854.22;;;5.86;86.08
75886;BME280;64561;44.018;10.144;2022-12-18T06:50:05;102855.34;;;5.89;85.66
75886;BME280;64561;44.018;10.144;2022-12-18T06:52:32;102857.13;;;5.90;86.11
75886;BME280;64561;44.018;10.144;2022-12-18T06:54:59;102868.78;;;5.99;86.02
75886;BME280;64561;44.018;10.144;2022-12-18T06:57:26;102857.97;;;6.01;85.59
75886;BME280;64561;44.018;10.144;2022-12-18T06:59:53;102863.28;;;6.04;86.04
75886;BME280;64561;44.018;10.144;2022-12-18T07:02:24;102870.25;;;6.07;85.39
75886;BME280;64561;44.018;10.144;2022-12-18T07:04:51;102865.72;;;6.03;84.72
75886;BME280;64561;44.018;10.144;2022-12-18T07:07:18;102885.81;;;5.89;85.72
75886;BME280;64561;44.018;10.144;2022-12-18T07:09:44;102893.09;;;5.85;86.27
75886;BME280;64561;44.018;10.144;2022-12-18T07:12:11;102897.00;;;5.91;86.28
75886;BME280;64561;44.018;10.144;2022-12-18T07:14:38;102894.84;;;5.96;86.29
75886;BME280;64561;44.018;10.144;2022-12-18T07:17:05;102893.94;;;5.95;85.69
75886;BME280;64561;44.018;10.144;2022-12-18T07:19:32;102900.59;;;5.93;86.02
75886;BME280;64561;44.018;10.144;2022-12-18T07:21:59;102900.41;;;6.02;86.20
75886;BME280;64561;44.018;10.144;2022-12-18T07:24:27;102905.72;;;6.05;86.07
75886;BME280;64561;44.018;10.144;2022-12-18T07:26:54;102902.34;;;5.94;85.90
75886;BME280;64561;44.018;10.144;2022-12-18T07:29:21;102899.31;;;5.88;86.62
75886;BME280;64561;44.018;10.144;2022-12-18T07:31:48;102907.47;;;5.84;87.55
75886;BME280;64561;44.018;10.144;2022-12-18T07:34:15;102905.97;;;5.76;88.27
75886;BME280;64561;44.018;10.144;2022-12-18T07:36:42;102902.91;;;5.80;88.62
75886;BME280;64561;44.018;10.144;2022-12-18T07:39:11;102910.34;;;5.99;88.34
75886;BME280;64561;44.018;10.144;2022-12-18T07:41:38;102906.38;;;6.03;88.07
75886;BME280;64561;44.018;10.144;2022-12-18T07:44:14;102909.84;;;6.15;87.81
75886;BME280;64561;44.018;10.144;2022-12-18T07:46:41;102917.31;;;6.13;87.08
75886;BME280;64561;44.018;10.144;2022-12-18T07:49:08;102916.25;;;6.22;87.28
75886;BME280;64561;44.018;10.144;2022-12-18T07:51:35;102919.44;;;6.19;87.28
75886;BME280;64561;44.018;10.144;2022-12-18T07:54:02;102925.78;;;6.24;87.45
75886;BME280;64561;44.018;10.144;2022-12-18T07:56:28;102923.81;;;6.32;87.96
75886;BME280;64561;44.018;10.144;2022-12-18T07:58:58;102933.78;;;6.40;88.15
75886;BME280;64561;44.018;10.144;2022-12-18T08:01:25;102925.84;;;6.48;88.42
75886;BME280;64561;44.018;10.144;2022-12-18T08:03:52;102936.50;;;6.66;88.13
75886;BME280;64561;44.018;10.144;2022-12-18T08:06:19;102936.28;;;6.62;88.55
75886;BME280;64561;44.018;10.144;2022-12-18T08:08:54;102939.78;;;6.53;89.47
75886;BME280;64561;44.018;10.144;2022-12-18T08:11:22;102946.97;;;6.58;89.42
75886;BME280;64561;44.018;10.144;2022-12-18T08:13:50;102960.38;;;6.68;89.59
75886;BME280;64561;44.018;10.144;2022-12-18T08:16:17;102954.09;;;6.74;89.67
75886;BME280;64561;44.018;10.144;2022-12-18T08:18:45;102956.66;;;6.74;90.72
75886;BME280;64561;44.018;10.144;2022-12-18T08:21:15;102961.19;;;6.78;90.71
75886;BME280;64561;44.018;10.144;2022-12-18T08:23:43;102974.03;;;6.92;90.50
75886;BME280;64561;44.018;10.144;2022-12-18T08:26:11;102977.59;;;7.17;90.25
75886;BME280;64561;44.018;10.144;2022-12-18T08:28:39;102972.38;;;7.27;89.82
75886;BME280;64561;44.018;10.144;2022-12-18T08:31:07;102977.38;;;7.26;89.42
75886;BME280;64561;44.018;10.144;2022-12-18T08:33:35;102987.13;;;7.31;89.65
75886;BME280;64561;44.018;10.144;2022-12-18T08:36:03;102989.63;;;7.55;89.35
75886;BME280;64561;44.018;10.144;2022-12-18T08:38:31;102991.94;;;7.64;88.51
75886;BME280;64561;44.018;10.144;2022-12-18T08:41:06;103000.59;;;7.77;88.33
75886;BME280;64561;44.018;10.144;2022-12-18T08:43:33;102999.56;;;7.87;87.49
75886;BME280;64561;44.018;10.144;2022-12-18T08:46:21;102995.56;;;7.91;86.70
75886;BME280;64561;44.018;10.144;2022-12-18T08:48:50;103005.22;;;7.83;87.01
75886;BME280;64561;44.018;10.144;2022-12-18T08:51:17;103008.88;;;7.87;87.35
75886;BME280;64561;44.018;10.144;2022-12-18T08:53:44;103003.78;;;7.87;85.81
75886;BME280;64561;44.018;10.144;2022-12-18T08:56:14;103006.69;;;7.79;86.18
75886;BME280;64561;44.018;10.144;2022-12-18T08:58:42;103009.53;;;7.84;86.45
75886;BME280;64561;44.018;10.144;2022-12-18T09:01:10;103014.97;;;7.89;86.50
75886;BME280;64561;44.018;10.144;2022-12-18T09:03:39;103013.41;;;7.91;86.30
75886;BME280;64561;44.018;10.144;2022-12-18T09:06:07;103021.16;;;8.04;87.29
75886;BME280;64561;44.018;10.144;2022-12-18T09:08:35;103022.19;;;8.19;87.70
75886;BME280;64561;44.018;10.144;2022-12-18T09:11:03;103036.59;;;8.42;87.49
75886;BME280;64561;44.018;10.144;2022-12-18T09:13:30;103028.66;;;8.51;87.08
75886;BME280;64561;44.018;10.144;2022-12-18T09:15:58;103039.00;;;8.66;86.42
75886;BME280;64561;44.018;10.144;2022-12-18T09:18:25;103039.53;;;8.74;86.38
75886;BME280;64561;44.018;10.144;2022-12-18T09:20:52;103045.25;;;8.83;85.70
75886;BME280;64561;44.018;10.144;2022-12-18T09:23:20;103044.09;;;8.91;86.27
75886;BME280;64561;44.018;10.144;2022-12-18T09:25:48;103039.97;;;8.93;86.55
75886;BME280;64561;44.018;10.144;2022-12-18T09:28:17;103038.03;;;9.02;86.67
75886;BME280;64561;44.018;10.144;2022-12-18T09:30:47;103041.88;;;9.09;85.44
75886;BME280;64561;44.018;10.144;2022-12-18T09:33:16;103044.16;;;9.18;85.63
75886;BME280;64561;44.018;10.144;2022-12-18T09:35:44;103044.44;;;9.22;85.07
75886;BME280;64561;44.018;10.144;2022-12-18T09:38:18;103041.41;;;9.28;85.45
75886;BME280;64561;44.018;10.144;2022-12-18T09:40:48;103047.31;;;9.40;85.61
75886;BME280;64561;44.018;10.144;2022-12-18T09:43:42;103042.00;;;9.50;85.28
75886;BME280;64561;44.018;10.144;2022-12-18T09:46:38;103039.63;;;9.53;84.53
75886;BME280;64561;44.018;10.144;2022-12-18T09:49:12;103040.41;;;9.66;84.46
75886;BME280;64561;44.018;10.144;2022-12-18T09:51:47;103039.75;;;9.81;83.34
75886;BME280;64561;44.018;10.144;2022-12-18T09:54:26;103036.44;;;9.97;82.36
75886;BME280;64561;44.018;10.144;2022-12-18T09:56:58;103030.72;;;10.01;82.39
75886;BME280;64561;44.018;10.144;2022-12-18T09:59:34;103030.97;;;9.91;82.50
75886;BME280;64561;44.018;10.144;2022-12-18T10:02:14;103035.47;;;9.95;81.97
75886;BME280;64561;44.018;10.144;2022-12-18T10:04:41;103031.66;;;9.89;81.79
75886;BME280;64561;44.018;10.144;2022-12-18T10:07:24;103030.09;;;9.77;81.41
75886;BME280;64561;44.018;10.144;2022-12-18T10:10:07;103036.50;;;9.71;81.68
75886;BME280;64561;44.018;10.144;2022-12-18T10:12:59;103033.13;;;9.85;82.29
75886;BME280;64561;44.018;10.144;2022-12-18T10:15:46;103026.25;;;9.84;82.11
75886;BME280;64561;44.018;10.144;2022-12-18T10:20:56;103021.00;;;10.37;81.26
75886;BME280;64561;44.018;10.144;2022-12-18T10:23:28;103018.59;;;10.53;80.20
75886;BME280;64561;44.018;10.144;2022-12-18T10:26:03;103024.59;;;10.54;80.13
75886;BME280;64561;44.018;10.144;2022-12-18T10:28:32;103027.03;;;10.52;80.44
75886;BME280;64561;44.018;10.144;2022-12-18T10:30:59;103015.59;;;10.61;79.40
75886;BME280;64561;44.018;10.144;2022-12-18T10:33:30;103018.16;;;10.61;79.11
75886;BME280;64561;44.018;10.144;2022-12-18T10:35:58;103006.88;;;10.72;78.57
75886;BME280;64561;44.018;10.144;2022-12-18T10:38:28;103013.41;;;10.82;77.72
75886;BME280;64561;44.018;10.144;2022-12-18T10:43:29;103015.34;;;11.15;75.91
75886;BME280;64561;44.018;10.144;2022-12-18T10:46:11;103004.66;;;11.23;73.86
75886;BME280;64561;44.018;10.144;2022-12-18T10:51:30;103015.44;;;11.02;74.45
75886;BME280;64561;44.018;10.144;2022-12-18T10:54:01;103006.25;;;11.06;75.59
75886;BME280;64561;44.018;10.144;2022-12-18T10:56:31;103011.84;;;11.13;75.40
75886;BME280;64561;44.018;10.144;2022-12-18T10:59:05;103000.94;;;11.17;74.05
75886;BME280;64561;44.018;10.144;2022-12-18T11:01:52;103008.97;;;11.24;74.68
75886;BME280;64561;44.018;10.144;2022-12-18T11:04:27;103017.91;;;11.15;74.48
75886;BME280;64561;44.018;10.144;2022-12-18T11:07:07;103019.88;;;11.05;74.57
75886;BME280;64561;44.018;10.144;2022-12-18T11:09:39;103020.66;;;11.04;73.70
75886;BME280;64561;44.018;10.144;2022-12-18T11:12:20;103015.16;;;11.27;73.38
75886;BME280;64561;44.018;10.144;2022-12-18T11:14:52;103017.81;;;11.43;73.43
75886;BME280;64561;44.018;10.144;2022-12-18T11:20:26;103021.16;;;11.42;71.99
75886;BME280;64561;44.018;10.144;2022-12-18T11:22:59;103017.53;;;11.24;69.96
75886;BME280;64561;44.018;10.144;2022-12-18T11:25:28;103011.84;;;11.13;71.50
75886;BME280;64561;44.018;10.144;2022-12-18T11:30:46;103002.97;;;11.23;70.47
75886;BME280;64561;44.018;10.144;2022-12-18T11:33:18;103010.16;;;11.14;71.77
75886;BME280;64561;44.018;10.144;2022-12-18T11:35:55;103002.28;;;11.11;71.99
75886;BME280;64561;44.018;10.144;2022-12-18T11:41:19;102989.91;;;11.04;71.15
75886;BME280;64561;44.018;10.144;2022-12-18T11:43:50;102998.56;;;11.06;71.80
75886;BME280;64561;44.018;10.144;2022-12-18T11:46:52;102983.44;;;11.25;68.88
75886;BME280;64561;44.018;10.144;2022-12-18T11:49:32;102987.94;;;11.29;68.99
75886;BME280;64561;44.018;10.144;2022-12-18T11:54:46;102978.84;;;11.34;66.66
75886;BME280;64561;44.018;10.144;2022-12-18T12:00:10;102980.22;;;11.75;66.90
75886;BME280;64561;44.018;10.144;2022-12-18T12:05:51;102980.50;;;11.96;64.83
75886;BME280;64561;44.018;10.144;2022-12-18T12:14:08;102973.28;;;12.05;65.13
75886;BME280;64561;44.018;10.144;2022-12-18T12:16:57;102986.78;;;12.34;63.97
75886;BME280;64561;44.018;10.144;2022-12-18T12:19:48;102985.81;;;12.32;65.38
75886;BME280;64561;44.018;10.144;2022-12-18T12:22:34;102981.09;;;12.40;65.34
75886;BME280;64561;44.018;10.144;2022-12-18T12:38:46;102971.63;;;12.73;66.64
75886;BME280;64561;44.018;10.144;2022-12-18T12:41:31;102973.75;;;12.64;66.97
75886;BME280;64561;44.018;10.144;2022-12-18T12:44:30;102965.53;;;12.71;66.69
75886;BME280;64561;44.018;10.144;2022-12-18T12:47:11;102971.13;;;12.80;65.66
75886;BME280;64561;44.018;10.144;2022-12-18T12:49:41;102968.78;;;12.85;65.10
75886;BME280;64561;44.018;10.144;2022-12-18T12:52:40;102977.25;;;13.00;61.40
75886;BME280;64561;44.018;10.144;2022-12-18T12:55:16;102966.97;;;13.00;60.37
75886;BME280;64561;44.018;10.144;2022-12-18T13:00:31;102960.31;;;12.87;62.01
75886;BME280;64561;44.018;10.144;2022-12-18T13:03:29;102966.97;;;13.00;62.63
75886;BME280;64561;44.018;10.144;2022-12-18T13:06:07;102962.03;;;13.04;62.25
75886;BME280;64561;44.018;10.144;2022-12-18T13:08:54;102966.28;;;13.04;63.16
75886;BME280;64561;44.018;10.144;2022-12-18T13:11:52;102959.25;;;13.00;62.80
75886;BME280;64561;44.018;10.144;2022-12-18T13:14:39;102955.19;;;12.87;63.08
75886;BME280;64561;44.018;10.144;2022-12-18T13:25:33;102952.75;;;12.90;60.72
75886;BME280;64561;44.018;10.144;2022-12-18T13:28:11;102958.00;;;12.92;59.88
75886;BME280;64561;44.018;10.144;2022-12-18T13:30:49;102966.44;;;12.89;59.17
75886;BME280;64561;44.018;10.144;2022-12-18T13:39:15;102958.72;;;12.89;60.71
75886;BME280;64561;44.018;10.144;2022-12-18T13:47:26;102953.44;;;13.04;60.17
75886;BME280;64561;44.018;10.144;2022-12-18T13:49:57;102950.19;;;13.08;61.46
75886;BME280;64561;44.018;10.144;2022-12-18T13:52:32;102955.44;;;13.10;60.54
75886;BME280;64561;44.018;10.144;2022-12-18T13:55:02;102950.56;;;12.98;61.04
75886;BME280;64561;44.018;10.144;2022-12-18T13:57:34;102955.19;;;12.87;62.64
75886;BME280;64561;44.018;10.144;2022-12-18T14:00:27;102955.75;;;12.81;62.44
75886;BME280;64561;44.018;10.144;2022-12-18T14:02:56;102956.72;;;12.84;62.53
75886;BME280;64561;44.018;10.144;2022-12-18T14:05:30;102957.44;;;12.81;62.30
75886;BME280;64561;44.018;10.144;2022-12-18T14:08:16;102965.25;;;12.82;62.02
75886;BME280;64561;44.018;10.144;2022-12-18T14:10:45;102970.16;;;12.78;62.17
75886;BME280;64561;44.018;10.144;2022-12-18T14:13:27;102965.56;;;12.72;62.41
75886;BME280;64561;44.018;10.144;2022-12-18T14:15:57;102971.31;;;12.67;60.89
75886;BME280;64561;44.018;10.144;2022-12-18T14:18:41;102965.22;;;12.65;60.32
75886;BME280;64561;44.018;10.144;2022-12-18T14:21:20;102964.50;;;12.67;60.74
75886;BME280;64561;44.018;10.144;2022-12-18T14:23:47;102965.28;;;12.66;61.17
75886;BME280;64561;44.018;10.144;2022-12-18T14:26:21;102966.34;;;12.53;62.26
75886;BME280;64561;44.018;10.144;2022-12-18T14:28:50;102958.59;;;12.35;63.45
75886;BME280;64561;44.018;10.144;2022-12-18T14:31:19;102970.75;;;12.22;64.30
75886;BME280;64561;44.018;10.144;2022-12-18T14:33:46;102969.34;;;12.12;64.18
75886;BME280;64561;44.018;10.144;2022-12-18T14:36:21;102960.94;;;11.98;65.22
75886;BME280;64561;44.018;10.144;2022-12-18T14:38:54;102968.94;;;11.88;65.47
75886;BME280;64561;44.018;10.144;2022-12-18T14:41:21;102959.78;;;11.77;66.83